Flight Track Log - Related Links

Times and Time Zones

All times are in EDT time to prevent confusion due to time zone crossing. See the ASA250 flight status page for this flight to view local times or setup timezone preferences in your user account.

Time Position Orientation Groundspeed Altitude Reporting Facility
EDT Latitude Longitude Course Direction KTS MPH feet Rate Location/Type
Sun 11:13:56 AM 33.9436 -118.3533 125° Southeast 176 203 1,800  Level Los Angeles Center
Sun 11:14:57 AM 33.9514 -118.2800 83° East 228 262 3,400 2,000 Climbing Los Angeles Center
Sun 11:15:59 AM 33.9069 -118.2178 131° Southeast 244 281 5,900 2,780 Climbing Los Angeles Center
Sun 11:17:00 AM 33.8447 -118.1350 132° Southeast 266 306 9,100 2,341 Climbing Los Angeles Center
Sun 11:18:02 AM 33.7886 -118.0617 133° Southeast 290 334 10,700 1,902 Climbing Los Angeles Center
Sun 11:19:00 AM 33.4892 -117.6433 125° Southeast  Level Estimated
Sun 11:19:03 AM 33.7200 -117.9797 135° Southeast 337 388 13,000  Level Los Angeles Center
Sun 11:20:05 AM 33.6508 -117.8969 135° Southeast 347 399 15,900 2,585 Climbing Los Angeles Center
Sun 11:21:06 AM 33.5858 -117.8044 130° Southeast 364 419 18,300 2,293 Climbing Los Angeles Center
Sun 11:22:08 AM 33.5522 -117.6836 108° East 381 438 20,600 2,032 Climbing Los Angeles Center
Sun 11:23:10 AM 33.5147 -117.5572 110° East 398 458 22,500 1,805 Climbing Los Angeles Center
Sun 11:24:11 AM 33.4664 -117.4317 115° Southeast 411 473 24,300 1,756 Climbing Los Angeles Center
Sun 11:25:13 AM 33.4089 -117.2750 114° Southeast 426 490 26,100 1,452 Climbing Los Angeles Center
Sun 11:26:15 AM 33.3625 -117.1494 114° Southeast 442 509 27,300 1,220 Climbing Los Angeles Center
Sun 11:27:16 AM 33.3100 -117.0108 114° Southeast 452 520 28,600 1,122 Climbing Los Angeles Center
Sun 11:28:18 AM 33.2572 -116.8675 114° Southeast 465 535 29,600 1,065 Climbing Los Angeles Center
Sun 11:29:20 AM 33.2022 -116.7197 114° Southeast 481 554 30,800 1,561 Climbing Los Angeles Center
Sun 11:30:21 AM 33.1353 -116.5433 114° Southeast 482 555 32,800 1,610 Climbing Los Angeles Center
Sun 11:31:23 AM 33.0803 -116.3972 114° Southeast 479 551 34,100 1,171 Climbing Los Angeles Center
Sun 11:32:24 AM 33.0233 -116.2492 115° Southeast 476 548 35,200 878 Climbing Los Angeles Center
Sun 11:33:26 AM 32.9672 -116.1044 115° Southeast 480 552 35,900 677 Climbing Los Angeles Center
Sun 11:34:28 AM 32.9114 -115.9575 114° Southeast 484 557 36,600 532 Climbing Los Angeles Center
Sun 11:35:30 AM 32.8550 -115.8111 115° Southeast 486 559 37,000 195 Climbing Los Angeles Center
Sun 11:36:31 AM 32.7972 -115.6636 115° Southeast 490 564 37,000  Level Los Angeles Center
Sun 11:37:33 AM 32.7422 -115.5158 114° Southeast 490 564 37,000  Level Los Angeles Center
Sun 11:38:35 AM 32.6839 -115.3697 115° Southeast 491 565 37,000  Level Los Angeles Center
Sun 11:39:37 AM 32.6242 -115.2233 116° Southeast 492 566 37,000  Level Los Angeles Center
Sun 11:41:00 AM 32.4983 -115.0685 133° Southeast  Level FlightAware Approximate
Sun 11:48:00 AM 31.8670 -114.2889 134° Southeast  Level FlightAware Approximate
Sun 11:49:00 AM 31.7764 -114.1785 134° Southeast  Level FlightAware Approximate
Sun 11:50:00 AM 31.6858 -114.0682 134° Southeast  Level FlightAware Approximate
Sun 11:51:00 AM 31.5950 -113.9581 134° Southeast  Level FlightAware Approximate
Sun 11:52:00 AM 31.5042 -113.8483 134° Southeast  Level FlightAware Approximate
Sun 11:53:00 AM 31.4132 -113.7386 134° Southeast  Level FlightAware Approximate
Sun 11:54:00 AM 31.3222 -113.6292 134° Southeast  Level FlightAware Approximate
Sun 11:55:00 AM 31.2310 -113.5200 134° Southeast  Level FlightAware Approximate
Sun 11:56:00 AM 31.1398 -113.4110 134° Southeast  Level FlightAware Approximate
Sun 11:57:00 AM 31.0485 -113.3022 134° Southeast  Level FlightAware Approximate
Sun 11:58:00 AM 30.9571 -113.1936 134° Southeast  Level FlightAware Approximate
Sun 11:59:00 AM 30.8656 -113.0853 135° Southeast  Level FlightAware Approximate
Sun 12:00:00 PM 30.7740 -112.9771 135° Southeast  Level FlightAware Approximate
Sun 12:01:00 PM 30.6823 -112.8691 135° Southeast  Level FlightAware Approximate
Sun 12:02:00 PM 30.5906 -112.7614 135° Southeast  Level FlightAware Approximate
Sun 12:03:00 PM 30.4987 -112.6538 135° Southeast  Level FlightAware Approximate
Sun 12:04:00 PM 30.4068 -112.5464 135° Southeast  Level FlightAware Approximate
Sun 12:05:00 PM 30.3148 -112.4393 135° Southeast  Level FlightAware Approximate
Sun 12:06:00 PM 30.2227 -112.3323 135° Southeast  Level FlightAware Approximate
Sun 12:07:00 PM 30.1305 -112.2255 135° Southeast  Level FlightAware Approximate
Sun 12:08:00 PM 30.0382 -112.1190 135° Southeast  Level FlightAware Approximate
Sun 12:09:00 PM 29.9459 -112.0126 135° Southeast  Level FlightAware Approximate
Sun 12:10:00 PM 29.8534 -111.9065 135° Southeast  Level FlightAware Approximate
Sun 12:11:00 PM 29.7609 -111.8005 135° Southeast  Level FlightAware Approximate
Sun 12:12:00 PM 29.6682 -111.6947 135° Southeast  Level FlightAware Approximate
Sun 12:13:00 PM 29.5756 -111.5891 135° Southeast  Level FlightAware Approximate
Sun 12:14:00 PM 29.4828 -111.4838 135° Southeast  Level FlightAware Approximate
Sun 12:15:00 PM 29.3899 -111.3786 135° Southeast  Level FlightAware Approximate
Sun 12:16:00 PM 29.2969 -111.2736 135° Southeast  Level FlightAware Approximate
Sun 12:17:00 PM 29.2039 -111.1688 135° Southeast  Level FlightAware Approximate
Sun 12:18:00 PM 29.1108 -111.0641 136° Southeast  Level FlightAware Approximate
Sun 12:19:00 PM 29.0191 -110.9580 134° Southeast  Level FlightAware Approximate
Sun 12:20:00 PM 28.9279 -110.8513 134° Southeast  Level FlightAware Approximate
Sun 12:21:00 PM 28.8367 -110.7449 134° Southeast  Level FlightAware Approximate
Sun 12:22:00 PM 28.7454 -110.6386 134° Southeast  Level FlightAware Approximate
Sun 12:23:00 PM 28.6540 -110.5324 134° Southeast  Level FlightAware Approximate
Sun 12:24:00 PM 28.5625 -110.4265 135° Southeast  Level FlightAware Approximate
Sun 12:25:00 PM 28.4709 -110.3208 135° Southeast  Level FlightAware Approximate
Sun 12:26:00 PM 28.3793 -110.2152 135° Southeast  Level FlightAware Approximate
Sun 12:27:00 PM 28.2875 -110.1099 135° Southeast  Level FlightAware Approximate
Sun 12:28:00 PM 28.1957 -110.0047 135° Southeast  Level FlightAware Approximate
Sun 12:29:00 PM 28.1038 -109.8997 135° Southeast  Level FlightAware Approximate
Sun 12:30:00 PM 28.0119 -109.7948 135° Southeast  Level FlightAware Approximate
Sun 12:31:00 PM 27.9198 -109.6902 135° Southeast  Level FlightAware Approximate
Sun 12:32:00 PM 27.8277 -109.5857 135° Southeast  Level FlightAware Approximate
Sun 12:33:00 PM 27.7365 -109.4803 133° Southeast  Level FlightAware Approximate
Sun 12:34:00 PM 27.6471 -109.3730 133° Southeast  Level FlightAware Approximate
Sun 12:35:00 PM 27.5577 -109.2658 133° Southeast  Level FlightAware Approximate
Sun 12:36:00 PM 27.4664 -109.1607 135° Southeast  Level FlightAware Approximate
Sun 12:37:00 PM 27.3736 -109.0575 135° Southeast  Level FlightAware Approximate
Sun 12:38:00 PM 27.2806 -108.9545 135° Southeast  Level FlightAware Approximate
Sun 12:39:00 PM 27.1876 -108.8517 135° Southeast  Level FlightAware Approximate
Sun 12:40:00 PM 27.0945 -108.7490 136° Southeast  Level FlightAware Approximate
Sun 12:41:00 PM 27.0013 -108.6465 136° Southeast  Level FlightAware Approximate
Sun 12:42:00 PM 26.9081 -108.5441 136° Southeast  Level FlightAware Approximate
Sun 12:43:00 PM 26.8147 -108.4419 136° Southeast  Level FlightAware Approximate
Sun 12:44:00 PM 26.7213 -108.3399 136° Southeast  Level FlightAware Approximate
Sun 12:45:00 PM 26.6417 -108.2248 125° Southeast  Level FlightAware Approximate
Sun 12:46:00 PM 26.5661 -108.1059 125° Southeast  Level FlightAware Approximate
Sun 12:47:00 PM 26.4904 -107.9872 125° Southeast  Level FlightAware Approximate
Sun 12:48:00 PM 26.4135 -107.8695 126° Southeast  Level FlightAware Approximate
Sun 12:49:00 PM 26.3360 -107.7524 126° Southeast  Level FlightAware Approximate
Sun 12:50:00 PM 26.2583 -107.6355 126° Southeast  Level FlightAware Approximate
Sun 12:51:00 PM 26.1806 -107.5187 127° Southeast  Level FlightAware Approximate
Sun 12:52:00 PM 26.1028 -107.4021 127° Southeast  Level FlightAware Approximate
Sun 12:53:00 PM 26.0249 -107.2856 127° Southeast  Level FlightAware Approximate
Sun 12:54:00 PM 25.9469 -107.1693 127° Southeast  Level FlightAware Approximate
Sun 12:55:00 PM 25.8688 -107.0531 127° Southeast  Level FlightAware Approximate
Sun 12:56:00 PM 25.7920 -106.9360 126° Southeast  Level FlightAware Approximate
Sun 12:57:00 PM 25.7152 -106.8189 126° Southeast  Level FlightAware Approximate
Sun 12:58:00 PM 25.6383 -106.7020 126° Southeast  Level FlightAware Approximate
Sun 12:59:00 PM 25.5613 -106.5852 126° Southeast  Level FlightAware Approximate
Sun 01:00:00 PM 25.4842 -106.4686 126° Southeast  Level FlightAware Approximate
Sun 01:01:00 PM 25.4069 -106.3522 127° Southeast  Level FlightAware Approximate
Sun 01:02:00 PM 25.3286 -106.2368 127° Southeast  Level FlightAware Approximate
Sun 01:03:00 PM 25.2502 -106.1214 127° Southeast  Level FlightAware Approximate
Sun 01:04:00 PM 25.1717 -106.0063 127° Southeast  Level FlightAware Approximate
Sun 01:05:00 PM 25.0917 -105.8925 129° Southeast  Level FlightAware Approximate
Sun 01:06:00 PM 25.0101 -105.7802 129° Southeast  Level FlightAware Approximate
Sun 01:07:00 PM 24.9284 -105.6680 129° Southeast  Level FlightAware Approximate
Sun 01:08:00 PM 24.8472 -105.5554 127° Southeast  Level FlightAware Approximate
Sun 01:09:00 PM 24.7678 -105.4414 127° Southeast  Level FlightAware Approximate
Sun 01:10:00 PM 24.6883 -105.3275 128° Southeast  Level FlightAware Approximate
Sun 01:11:00 PM 24.6087 -105.2138 128° Southeast  Level FlightAware Approximate
Sun 01:12:00 PM 24.5290 -105.1003 128° Southeast  Level FlightAware Approximate
Sun 01:13:00 PM 24.4493 -104.9868 128° Southeast  Level FlightAware Approximate
Sun 01:14:00 PM 24.3694 -104.8735 128° Southeast  Level FlightAware Approximate
Sun 01:15:00 PM 24.2895 -104.7604 128° Southeast  Level FlightAware Approximate
Sun 01:16:00 PM 24.2095 -104.6474 128° Southeast  Level FlightAware Approximate
Sun 01:17:00 PM 24.1294 -104.5346 128° Southeast  Level FlightAware Approximate
Sun 01:18:00 PM 24.0531 -104.4187 125° Southeast  Level FlightAware Approximate
Sun 01:19:00 PM 23.9774 -104.3024 125° Southeast  Level FlightAware Approximate
Sun 01:20:00 PM 23.9016 -104.1862 125° Southeast  Level FlightAware Approximate
Sun 01:21:00 PM 23.8258 -104.0701 126° Southeast  Level FlightAware Approximate
Sun 01:22:00 PM 23.7498 -103.9542 126° Southeast  Level FlightAware Approximate
Sun 01:23:00 PM 23.6738 -103.8384 126° Southeast  Level FlightAware Approximate
Sun 01:24:00 PM 23.5977 -103.7228 126° Southeast  Level FlightAware Approximate
Sun 01:25:00 PM 23.5215 -103.6073 126° Southeast  Level FlightAware Approximate
Sun 01:26:00 PM 23.4429 -103.4937 127° Southeast  Level FlightAware Approximate
Sun 01:27:00 PM 23.3641 -103.3804 127° Southeast  Level FlightAware Approximate
Sun 01:28:00 PM 23.2853 -103.2673 127° Southeast  Level FlightAware Approximate
Sun 01:29:00 PM 23.2063 -103.1543 127° Southeast  Level FlightAware Approximate
Sun 01:30:00 PM 23.1274 -103.0413 126° Southeast  Level FlightAware Approximate
Sun 01:31:00 PM 23.0499 -102.9273 126° Southeast  Level FlightAware Approximate
Sun 01:32:00 PM 22.9722 -102.8134 127° Southeast  Level FlightAware Approximate
Sun 01:33:00 PM 22.8945 -102.6996 127° Southeast  Level FlightAware Approximate
Sun 01:34:00 PM 22.8048 -102.5970 135° Southeast  Level FlightAware Approximate
Sun 01:35:00 PM 22.7131 -102.4964 135° Southeast  Level FlightAware Approximate
Sun 01:36:00 PM 22.6214 -102.3959 135° Southeast  Level FlightAware Approximate
Sun 01:37:00 PM 22.5295 -102.2956 135° Southeast  Level FlightAware Approximate
Sun 01:38:00 PM 22.4376 -102.1954 135° Southeast  Level FlightAware Approximate
Sun 01:39:00 PM 22.3458 -102.0952 134° Southeast  Level FlightAware Approximate
Sun 01:40:00 PM 22.2558 -101.9931 134° Southeast  Level FlightAware Approximate
Sun 01:41:00 PM 22.1657 -101.8912 134° Southeast  Level FlightAware Approximate
Sun 01:42:00 PM 22.0756 -101.7894 134° Southeast  Level FlightAware Approximate
Sun 01:43:00 PM 21.9854 -101.6877 134° Southeast  Level FlightAware Approximate
Sun 01:44:00 PM 21.8952 -101.5862 134° Southeast  Level FlightAware Approximate
Sun 01:45:00 PM 21.8049 -101.4847 134° Southeast  Level FlightAware Approximate
Sun 01:46:00 PM 21.7147 -101.3832 134° Southeast  Level FlightAware Approximate
Sun 01:47:00 PM 21.6228 -101.2836 135° Southeast  Level FlightAware Approximate
Sun 01:48:00 PM 21.5305 -101.1845 135° Southeast  Level FlightAware Approximate
Sun 01:49:00 PM 21.4381 -101.0855 135° Southeast  Level FlightAware Approximate
Sun 01:50:00 PM 21.3457 -100.9866 135° Southeast  Level FlightAware Approximate
Sun 01:51:00 PM 21.2532 -100.8879 135° Southeast  Level FlightAware Approximate
Sun 01:52:00 PM 21.1627 -100.7871 134° Southeast  Level FlightAware Approximate
Sun 01:53:00 PM 21.0720 -100.6866 135° Southeast  Level FlightAware Approximate
Sun 01:54:00 PM 20.9798 -100.5878 135° Southeast  Level FlightAware Approximate
Sun 01:55:00 PM 20.8876 -100.4890 135° Southeast  Level FlightAware Approximate
Sun 01:56:00 PM 20.8011 -100.3846 131° Southeast  Level FlightAware Approximate
Sun 01:57:00 PM 20.7013 -100.2960 132° Southeast  Level FlightAware Approximate
Sun 01:58:00 PM 20.6193 -100.1886 118° Southeast  Level FlightAware Approximate
Sun 01:59:00 PM 20.5336 -100.0837 132° Southeast  Level FlightAware Approximate
Sun 02:00:00 PM 20.4545 -99.9729 127° Southeast  Level FlightAware Approximate
Sun 02:01:00 PM 20.3754 -99.8622 127° Southeast  Level FlightAware Approximate
Sun 02:02:00 PM 20.2915 -99.7558 130° Southeast  Level FlightAware Approximate
Sun 02:03:00 PM 20.2069 -99.6499 130° Southeast  Level FlightAware Approximate
Sun 02:04:00 PM 20.1222 -99.5442 130° Southeast  Level FlightAware Approximate
Sun 02:05:00 PM 20.0375 -99.4386 130° Southeast  Level FlightAware Approximate
Sun 02:06:00 PM 19.9616 -99.3257 125° Southeast  Level FlightAware Approximate
Sun 02:07:00 PM 19.8853 -99.2141 133° Southeast  Level FlightAware Approximate
Sun 02:08:00 PM 19.7970 -99.1121 125° Southeast  Level FlightAware Approximate
Sun 02:09:00 PM 19.7135 -99.0216 193° South  Level FlightAware Approximate
Sun 02:10:00 PM 19.5843 -99.0333 180° South  Level FlightAware Approximate
Sun 02:11:00 PM 19.4561 -99.0588 191° South  Level FlightAware Approximate
Sun 02:12:00 PM 19.4363 -99.0721 191° South  Level Estimated
Sun 02:13:00 PM 19.4363 -99.0721 191° South  Level Estimated
Sun 02:14:00 PM 19.4363 -99.0721 191° South  Level Estimated
Sun 02:15:00 PM 19.4363 -99.0721 191° South  Level Estimated
Sun 02:16:00 PM 19.4363 -99.0721 191° South  Level Estimated
Sun 02:17:00 PM 19.4363 -99.0721 191° South  Level Estimated
Sun 02:18:00 PM 19.4363 -99.0721 191° South  Level Estimated
Sun 02:19:00 PM 19.4363 -99.0721 191° South  Level Estimated
Sun 02:20:00 PM 19.4363 -99.0721 191° South  Level Estimated
Sun 02:21:00 PM 19.4363 -99.0721 191° South  Level Estimated
Sun 02:22:00 PM 19.4363 -99.0721 191° South  Level Estimated
Sun 02:23:00 PM 19.4363 -99.0721 191° South  Level Estimated
Sun 02:24:00 PM 19.4363 -99.0721 191° South  Level Estimated

Login

Don't have an account? Register now (free) for customized features, flight alerts, and more!